createdAt,value
2019-02-02T00:00:25.849Z,8.10
2019-02-02T00:01:25.841Z,10.00
2019-02-02T00:02:25.831Z,10.10
2019-02-02T00:03:25.823Z,9.20
2019-02-02T00:04:25.815Z,8.20
2019-02-02T00:05:25.809Z,8.60
2019-02-02T00:06:25.797Z,8.00
2019-02-02T00:07:25.789Z,7.40
2019-02-02T00:08:25.783Z,8.20
2019-02-02T00:09:25.772Z,7.50
2019-02-02T00:10:25.765Z,7.80
2019-02-02T00:11:25.759Z,7.90
2019-02-02T00:12:25.749Z,8.50
2019-02-02T00:13:25.740Z,8.60
2019-02-02T00:14:25.735Z,7.90
2019-02-02T00:15:25.723Z,7.50
2019-02-02T00:16:25.713Z,8.90
2019-02-02T00:17:25.708Z,7.80
2019-02-02T00:18:25.699Z,8.70
2019-02-02T00:19:25.689Z,9.00
2019-02-02T00:20:25.681Z,9.40
2019-02-02T00:21:25.674Z,8.90
2019-02-02T00:22:25.666Z,8.20
2019-02-02T00:23:25.656Z,9.10
2019-02-02T00:24:25.649Z,8.70
2019-02-02T00:25:25.640Z,7.80
2019-02-02T00:26:25.630Z,8.70
2019-02-02T00:27:25.623Z,7.90
2019-02-02T00:28:25.614Z,8.00
2019-02-02T00:29:25.607Z,9.10
2019-02-02T00:30:25.618Z,8.80
2019-02-02T00:31:25.589Z,9.00
2019-02-02T00:32:25.583Z,8.00
2019-02-02T00:33:25.574Z,8.90
2019-02-02T00:34:25.566Z,8.40
2019-02-02T00:35:25.558Z,8.10
2019-02-02T00:36:25.549Z,8.70
2019-02-02T00:37:25.543Z,8.20
2019-02-02T00:38:25.533Z,8.20
2019-02-02T00:39:25.523Z,9.50
2019-02-02T00:40:25.517Z,9.00
2019-02-02T00:41:25.508Z,9.20
2019-02-02T00:42:25.500Z,8.60
2019-02-02T00:43:25.492Z,8.60
2019-02-02T00:44:25.482Z,9.50
2019-02-02T00:45:25.476Z,8.30
2019-02-02T00:46:25.467Z,8.80
2019-02-02T00:47:25.460Z,9.90
2019-02-02T00:48:25.458Z,8.60
2019-02-02T00:49:25.446Z,9.30
2019-02-02T00:50:25.434Z,8.00
2019-02-02T00:51:25.427Z,8.40
2019-02-02T00:52:25.417Z,9.40
2019-02-02T00:53:25.410Z,10.70
2019-02-02T00:54:25.403Z,8.40
2019-02-02T00:55:25.393Z,8.30
2019-02-02T00:56:25.388Z,9.50
2019-02-02T00:57:25.451Z,8.70
2019-02-02T00:58:25.368Z,8.30
2019-02-02T00:59:25.361Z,8.60
2019-02-02T01:00:25.353Z,9.40
2019-02-02T01:01:25.345Z,8.90
2019-02-02T01:02:25.340Z,8.50
2019-02-02T01:03:25.328Z,8.70
2019-02-02T01:04:25.321Z,10.00
2019-02-02T01:05:25.312Z,9.00
2019-02-02T01:06:25.304Z,8.40
2019-02-02T01:07:25.300Z,8.80
2019-02-02T01:08:25.287Z,9.20
2019-02-02T01:09:25.282Z,9.00
2019-02-02T01:10:25.273Z,8.80
2019-02-02T01:11:25.268Z,9.10
2019-02-02T01:12:25.256Z,9.70
2019-02-02T01:13:25.249Z,9.50
2019-02-02T01:14:25.240Z,8.50
2019-02-02T01:15:25.232Z,9.40
2019-02-02T01:16:25.224Z,8.50
2019-02-02T01:17:25.216Z,9.20
2019-02-02T01:18:25.207Z,8.20
2019-02-02T01:19:25.198Z,9.90
2019-02-02T01:20:25.192Z,9.20
2019-02-02T01:21:25.185Z,9.10
2019-02-02T01:22:25.176Z,9.90
2019-02-02T01:23:25.166Z,10.00
2019-02-02T01:24:25.160Z,8.10
2019-02-02T01:25:25.151Z,8.00
2019-02-02T01:26:25.145Z,9.50
2019-02-02T01:27:25.135Z,7.70
2019-02-02T01:28:25.135Z,8.00
2019-02-02T01:29:25.120Z,9.30
2019-02-02T01:30:25.115Z,9.70
2019-02-02T01:31:25.103Z,7.60
2019-02-02T01:32:25.098Z,7.90
2019-02-02T01:33:25.088Z,8.70
2019-02-02T01:34:25.080Z,10.00
2019-02-02T01:35:25.071Z,9.20
2019-02-02T01:36:25.063Z,8.70
2019-02-02T01:37:25.056Z,8.20
2019-02-02T01:38:25.047Z,9.50
2019-02-02T01:39:25.041Z,8.80
2019-02-02T01:40:25.032Z,8.60
2019-02-02T01:41:25.024Z,9.80
2019-02-02T01:42:25.015Z,8.80
2019-02-02T01:43:25.007Z,9.10
2019-02-02T01:44:24.998Z,8.70
2019-02-02T01:45:24.992Z,8.50
2019-02-02T01:46:24.983Z,8.50
2019-02-02T01:47:24.975Z,8.80
2019-02-02T01:48:24.967Z,9.60
2019-02-02T01:49:24.959Z,8.90
2019-02-02T01:50:24.972Z,9.50
2019-02-02T01:51:24.941Z,9.50
2019-02-02T01:52:24.935Z,8.90
2019-02-02T01:53:24.927Z,8.90
2019-02-02T01:54:24.919Z,9.20
2019-02-02T01:55:24.911Z,8.40
2019-02-02T01:56:24.904Z,9.00
2019-02-02T01:57:24.894Z,9.10
2019-02-02T01:58:24.886Z,8.80
2019-02-02T01:59:24.882Z,8.70
2019-02-02T02:00:24.869Z,9.00
2019-02-02T02:01:24.871Z,9.10
2019-02-02T02:02:24.855Z,8.50
2019-02-02T02:03:24.847Z,9.00
2019-02-02T02:04:24.838Z,7.80
2019-02-02T02:05:24.830Z,9.10
2019-02-02T02:06:24.822Z,8.80
2019-02-02T02:07:24.814Z,10.40
2019-02-02T02:08:24.811Z,8.80
2019-02-02T02:09:24.796Z,8.60
2019-02-02T02:10:24.791Z,9.80
2019-02-02T02:11:24.782Z,8.70
2019-02-02T02:12:24.771Z,9.20
2019-02-02T02:13:24.767Z,11.30
2019-02-02T02:14:24.757Z,10.70
2019-02-02T02:15:24.748Z,10.70
2019-02-02T02:16:24.740Z,9.30
2019-02-02T02:17:24.732Z,8.50
2019-02-02T02:18:24.726Z,9.10
2019-02-02T02:19:24.715Z,8.70
2019-02-02T02:20:24.748Z,10.30
2019-02-02T02:21:24.699Z,9.70
2019-02-02T02:22:24.691Z,10.00
2019-02-02T02:23:24.683Z,9.40
2019-02-02T02:24:24.675Z,10.30
2019-02-02T02:25:24.668Z,9.30
2019-02-02T02:26:24.659Z,10.30
2019-02-02T02:27:24.651Z,8.00
2019-02-02T02:28:28.129Z,10.20
2019-02-02T02:29:24.636Z,10.20
2019-02-02T02:30:24.631Z,10.20
2019-02-02T02:31:24.623Z,10.00
2019-02-02T02:32:24.621Z,9.60
2019-02-02T02:33:24.601Z,10.70
2019-02-02T02:34:24.594Z,8.80
2019-02-02T02:35:24.586Z,9.50
2019-02-02T02:36:24.578Z,9.40
2019-02-02T02:37:24.568Z,9.10
2019-02-02T02:38:24.561Z,9.10
2019-02-02T02:39:24.553Z,10.20
2019-02-02T02:40:24.552Z,8.90
2019-02-02T02:41:24.537Z,9.90
2019-02-02T02:42:24.529Z,9.30
2019-02-02T02:43:24.519Z,10.10
2019-02-02T02:44:24.520Z,9.90
2019-02-02T02:45:24.506Z,9.10
2019-02-02T02:46:24.500Z,8.50
2019-02-02T02:47:24.490Z,8.50
2019-02-02T02:48:24.479Z,9.50
2019-02-02T02:49:24.473Z,8.10
2019-02-02T02:50:24.472Z,10.30
2019-02-02T02:51:24.454Z,9.10
2019-02-02T02:52:24.448Z,9.00
2019-02-02T02:53:24.440Z,9.30
2019-02-02T02:54:24.433Z,8.00
2019-02-02T02:55:24.422Z,9.80
2019-02-02T02:56:24.415Z,8.70
2019-02-02T02:57:24.406Z,8.50
2019-02-02T02:58:24.397Z,9.20
2019-02-02T02:59:24.391Z,8.80
2019-02-02T03:00:24.382Z,8.30
2019-02-02T03:01:24.375Z,8.90
2019-02-02T03:02:24.367Z,8.70
2019-02-02T03:03:24.363Z,8.90
2019-02-02T03:04:24.352Z,8.20
2019-02-02T03:05:24.351Z,7.50
2019-02-02T03:06:24.334Z,8.60
2019-02-02T03:07:24.328Z,7.90
2019-02-02T03:08:24.318Z,8.00
2019-02-02T03:09:24.311Z,9.10
2019-02-02T03:10:24.303Z,7.30
2019-02-02T03:11:24.454Z,7.80
2019-02-02T03:12:24.285Z,7.50
2019-02-02T03:13:24.277Z,7.70
2019-02-02T03:14:24.270Z,8.20
2019-02-02T03:15:24.262Z,6.90
2019-02-02T03:16:24.254Z,7.80
2019-02-02T03:17:24.247Z,8.40
2019-02-02T03:18:24.239Z,7.50
2019-02-02T03:19:24.228Z,7.80
2019-02-02T03:20:24.222Z,8.00
2019-02-02T03:21:24.220Z,7.10
2019-02-02T03:22:24.208Z,7.40
2019-02-02T03:23:24.198Z,7.50
2019-02-02T03:24:24.191Z,7.20
2019-02-02T03:25:24.183Z,6.70
2019-02-02T03:26:24.174Z,6.90
2019-02-02T03:27:24.167Z,6.60
2019-02-02T03:28:24.158Z,7.60
2019-02-02T03:29:24.151Z,6.80
2019-02-02T03:30:24.156Z,6.80
2019-02-02T03:31:24.136Z,7.60
2019-02-02T03:32:24.129Z,6.80
2019-02-02T03:33:24.121Z,7.80
2019-02-02T03:34:24.113Z,6.80
2019-02-02T03:35:24.138Z,8.10
2019-02-02T03:36:24.098Z,6.90
2019-02-02T03:37:24.092Z,7.50
2019-02-02T03:38:24.081Z,7.00
2019-02-02T03:39:24.073Z,7.30
2019-02-02T03:40:24.067Z,7.10
2019-02-02T03:41:24.056Z,7.70
2019-02-02T03:42:24.049Z,7.70
2019-02-02T03:43:24.043Z,8.10
2019-02-02T03:44:24.034Z,6.20
2019-02-02T03:45:24.031Z,7.80
2019-02-02T03:46:24.020Z,6.60
2019-02-02T03:47:24.010Z,6.60
2019-02-02T03:48:24.003Z,6.70
2019-02-02T03:49:23.996Z,7.60
2019-02-02T03:50:23.992Z,7.20
2019-02-02T03:51:23.980Z,7.90
2019-02-02T03:52:23.972Z,7.30
2019-02-02T03:53:23.964Z,7.50
2019-02-02T03:54:23.958Z,7.10
2019-02-02T03:55:23.950Z,7.40
2019-02-02T03:56:23.944Z,8.30
2019-02-02T03:57:23.935Z,7.50
2019-02-02T03:58:23.946Z,7.10
2019-02-02T03:59:23.920Z,7.20
2019-02-02T04:00:23.951Z,8.00
2019-02-02T04:01:23.904Z,6.70
2019-02-02T04:02:23.899Z,7.10
2019-02-02T04:03:23.887Z,6.10
2019-02-02T04:04:23.880Z,7.00
2019-02-02T04:05:23.872Z,7.60
2019-02-02T04:06:23.866Z,6.70
2019-02-02T04:07:23.856Z,7.60
2019-02-02T04:08:23.849Z,6.70
2019-02-02T04:09:23.843Z,6.50
2019-02-02T04:10:23.836Z,6.90
2019-02-02T04:11:23.826Z,7.00
2019-02-02T04:12:23.820Z,7.10
2019-02-02T04:13:23.811Z,6.80
2019-02-02T04:14:23.805Z,7.50
2019-02-02T04:15:23.797Z,6.50
2019-02-02T04:16:23.789Z,6.60
2019-02-02T04:17:23.782Z,6.90
2019-02-02T04:18:23.774Z,8.00
2019-02-02T04:19:23.767Z,6.10
2019-02-02T04:20:23.762Z,6.80
2019-02-02T04:21:23.754Z,7.50
2019-02-02T04:22:23.742Z,6.60
2019-02-02T04:23:23.734Z,7.50
2019-02-02T04:24:23.728Z,6.60
2019-02-02T04:25:23.720Z,7.40
2019-02-02T04:26:23.713Z,7.40
2019-02-02T04:27:23.703Z,8.00
2019-02-02T04:28:23.697Z,8.00
2019-02-02T04:29:23.689Z,6.40
2019-02-02T04:30:23.683Z,7.30
2019-02-02T04:31:23.674Z,8.30
2019-02-02T04:32:23.666Z,8.00
2019-02-02T04:33:23.660Z,8.00
2019-02-02T04:34:23.656Z,8.60
2019-02-02T04:35:23.644Z,7.20
2019-02-02T04:36:23.639Z,7.60
2019-02-02T04:37:23.631Z,9.70
2019-02-02T04:38:23.622Z,7.50
2019-02-02T04:39:23.614Z,7.90
2019-02-02T04:40:23.605Z,9.20
2019-02-02T04:41:23.599Z,6.80
2019-02-02T04:42:23.592Z,7.80
2019-02-02T04:43:23.584Z,7.80
2019-02-02T04:44:23.576Z,8.60
2019-02-02T04:45:23.686Z,7.30
2019-02-02T04:46:23.562Z,8.50
2019-02-02T04:47:23.554Z,7.20
2019-02-02T04:48:23.545Z,8.20
2019-02-02T04:49:23.539Z,7.90
2019-02-02T04:50:23.532Z,8.00
2019-02-02T04:51:23.524Z,8.60
2019-02-02T04:52:23.517Z,6.80
2019-02-02T04:53:23.510Z,8.00
2019-02-02T04:54:23.600Z,8.40
2019-02-02T04:55:23.500Z,7.80
2019-02-02T04:56:23.486Z,7.90
2019-02-02T04:57:23.479Z,8.50
2019-02-02T04:58:23.473Z,6.60
2019-02-02T04:59:29.320Z,8.10
2019-02-02T05:00:23.457Z,7.70
2019-02-02T05:01:23.451Z,7.70
2019-02-02T05:02:23.444Z,8.10
2019-02-02T05:03:23.436Z,8.40
2019-02-02T05:04:23.429Z,8.30
2019-02-02T05:05:23.421Z,7.30
2019-02-02T05:06:23.414Z,7.60
2019-02-02T05:07:23.406Z,7.60
2019-02-02T05:08:23.399Z,8.10
2019-02-02T05:09:23.391Z,8.30
2019-02-02T05:10:23.385Z,8.30
2019-02-02T05:11:23.378Z,8.40
2019-02-02T05:12:23.372Z,7.70
2019-02-02T05:13:23.387Z,7.30
2019-02-02T05:14:23.355Z,9.30
2019-02-02T05:15:23.348Z,8.00
2019-02-02T05:16:23.340Z,7.90
2019-02-02T05:17:23.333Z,8.40
2019-02-02T05:18:23.326Z,8.70
2019-02-02T05:19:23.320Z,9.20
2019-02-02T05:20:23.311Z,7.90
2019-02-02T05:21:23.307Z,9.10
2019-02-02T05:22:23.299Z,7.80
2019-02-02T05:23:23.291Z,8.70
2019-02-02T05:24:23.284Z,9.80
2019-02-02T05:25:23.278Z,9.70
2019-02-02T05:26:23.272Z,7.40
2019-02-02T05:27:23.263Z,8.70
2019-02-02T05:28:23.253Z,8.80
2019-02-02T05:29:23.247Z,8.90
2019-02-02T05:30:23.242Z,8.00
2019-02-02T05:31:23.233Z,9.70
2019-02-02T05:32:23.226Z,8.80
2019-02-02T05:33:23.223Z,9.80
2019-02-02T05:34:23.213Z,8.40
2019-02-02T05:35:23.204Z,8.90
2019-02-02T05:36:23.199Z,8.80
2019-02-02T05:37:23.191Z,8.70
2019-02-02T05:38:23.183Z,9.00
2019-02-02T05:39:23.176Z,9.40
2019-02-02T05:40:23.175Z,8.00
2019-02-02T05:41:23.163Z,7.90
2019-02-02T05:42:23.157Z,9.30
2019-02-02T05:43:23.148Z,9.90
2019-02-02T05:44:23.141Z,8.50
2019-02-02T05:45:23.134Z,8.60
2019-02-02T05:46:23.128Z,10.80
2019-02-02T05:47:23.119Z,7.80
2019-02-02T05:48:23.115Z,10.40
2019-02-02T05:49:23.107Z,8.90
2019-02-02T05:50:23.100Z,8.40
2019-02-02T05:51:23.090Z,10.50
2019-02-02T05:52:23.085Z,9.80
2019-02-02T05:53:23.077Z,8.40
2019-02-02T05:54:23.070Z,9.30
2019-02-02T05:55:23.063Z,9.60
2019-02-02T05:56:23.055Z,9.50
2019-02-02T05:57:23.047Z,8.10
2019-02-02T05:58:23.041Z,8.60
2019-02-02T05:59:23.033Z,7.90
2019-02-02T06:00:23.026Z,9.60
2019-02-02T06:01:23.026Z,8.70
2019-02-02T06:02:23.013Z,9.00
2019-02-02T06:03:23.004Z,9.80
2019-02-02T06:04:22.996Z,9.40
2019-02-02T06:05:22.992Z,9.40
2019-02-02T06:06:22.984Z,10.20
2019-02-02T06:07:22.976Z,10.70
2019-02-02T06:08:22.969Z,8.80
2019-02-02T06:09:23.021Z,10.10
2019-02-02T06:10:22.955Z,9.80
2019-02-02T06:11:22.947Z,10.60
2019-02-02T06:12:22.945Z,9.30
2019-02-02T06:13:22.933Z,8.70
2019-02-02T06:14:22.925Z,9.10
2019-02-02T06:15:22.917Z,10.40
2019-02-02T06:16:22.912Z,10.70
2019-02-02T06:17:22.902Z,10.20
2019-02-02T06:18:22.897Z,10.20
2019-02-02T06:19:22.888Z,10.30
2019-02-02T06:20:22.882Z,10.00
2019-02-02T06:21:22.878Z,10.60
2019-02-02T06:22:22.868Z,9.60
2019-02-02T06:23:22.859Z,9.50
2019-02-02T06:24:22.853Z,11.10
2019-02-02T06:25:22.847Z,8.70
2019-02-02T06:26:22.837Z,10.20
2019-02-02T06:27:22.831Z,10.40
2019-02-02T06:28:22.824Z,9.70
2019-02-02T06:29:22.817Z,9.40
2019-02-02T06:30:22.810Z,8.90
2019-02-02T06:31:22.802Z,10.90
2019-02-02T06:32:22.794Z,9.70
2019-02-02T06:33:22.787Z,10.70
2019-02-02T06:34:22.781Z,10.10
2019-02-02T06:35:22.772Z,11.00
2019-02-02T06:36:22.764Z,9.10
2019-02-02T06:37:22.757Z,9.70
2019-02-02T06:38:22.750Z,11.70
2019-02-02T06:39:22.746Z,10.10
2019-02-02T06:40:22.736Z,10.50
2019-02-02T06:41:22.729Z,9.70
2019-02-02T06:42:22.722Z,10.30
2019-02-02T06:43:22.714Z,11.70
2019-02-02T06:44:22.707Z,10.40
2019-02-02T06:45:22.702Z,11.50
2019-02-02T06:46:22.691Z,10.80
2019-02-02T06:47:22.686Z,12.60
2019-02-02T06:48:22.676Z,10.80
2019-02-02T06:49:22.672Z,10.70
2019-02-02T06:50:22.663Z,11.00
2019-02-02T06:51:22.656Z,13.20
2019-02-02T06:52:22.647Z,10.80
2019-02-02T06:53:22.640Z,11.50
2019-02-02T06:54:22.632Z,10.60
2019-02-02T06:55:22.626Z,12.80
2019-02-02T06:56:22.617Z,11.10
2019-02-02T06:57:22.610Z,12.20
2019-02-02T06:58:22.601Z,11.20
2019-02-02T06:59:22.596Z,11.80
2019-02-02T07:00:22.593Z,11.30
2019-02-02T07:01:22.579Z,11.30
2019-02-02T07:02:22.571Z,11.10
2019-02-02T07:03:22.568Z,13.30
2019-02-02T07:04:22.555Z,10.90
2019-02-02T07:05:22.548Z,11.20
2019-02-02T07:06:22.541Z,11.40
2019-02-02T07:07:22.535Z,11.90
2019-02-02T07:08:22.526Z,12.10
2019-02-02T07:09:22.518Z,13.10
2019-02-02T07:10:22.511Z,11.40
2019-02-02T07:11:22.502Z,11.00
2019-02-02T07:12:22.495Z,11.60
2019-02-02T07:13:22.487Z,11.00
2019-02-02T07:14:22.480Z,12.60
2019-02-02T07:15:22.471Z,12.50
2019-02-02T07:16:22.583Z,13.20
2019-02-02T07:17:22.454Z,10.20
2019-02-02T07:18:22.448Z,10.50
2019-02-02T07:19:22.439Z,12.30
2019-02-02T07:20:22.435Z,12.40
2019-02-02T07:21:22.425Z,10.70
2019-02-02T07:22:22.416Z,13.20
2019-02-02T07:23:22.409Z,12.10
2019-02-02T07:24:22.400Z,10.70
2019-02-02T07:25:22.394Z,13.20
2019-02-02T07:26:22.394Z,12.40
2019-02-02T07:27:22.378Z,11.20
2019-02-02T07:28:22.372Z,13.00
2019-02-02T07:29:22.363Z,12.30
2019-02-02T07:30:28.801Z,12.30
2019-02-02T07:31:22.349Z,12.90
2019-02-02T07:32:22.338Z,12.20
2019-02-02T07:33:22.331Z,14.60
2019-02-02T07:34:22.324Z,12.70
2019-02-02T07:35:22.316Z,12.20
2019-02-02T07:36:22.307Z,13.70
2019-02-02T07:37:22.302Z,14.50
2019-02-02T07:38:22.293Z,13.10
2019-02-02T07:39:22.283Z,13.20
2019-02-02T07:40:22.277Z,12.70
2019-02-02T07:41:22.269Z,11.90
2019-02-02T07:42:22.263Z,13.90
2019-02-02T07:43:22.254Z,15.40
2019-02-02T07:44:22.246Z,14.30
2019-02-02T07:45:22.239Z,13.50
2019-02-02T07:46:22.231Z,14.30
2019-02-02T07:47:22.221Z,13.90
2019-02-02T07:48:22.215Z,14.70
2019-02-02T07:49:22.207Z,14.10
2019-02-02T07:50:22.199Z,12.40
2019-02-02T07:51:22.190Z,14.20
2019-02-02T07:52:22.183Z,15.00
2019-02-02T07:53:22.176Z,12.50
2019-02-02T07:54:22.171Z,13.30
2019-02-02T07:55:22.160Z,12.90
2019-02-02T07:56:22.152Z,13.70
2019-02-02T07:57:22.147Z,13.40
2019-02-02T07:58:22.138Z,14.90
2019-02-02T07:59:22.131Z,13.40
2019-02-02T08:00:22.123Z,14.10
2019-02-02T08:01:22.114Z,12.50
2019-02-02T08:02:22.107Z,15.00
2019-02-02T08:03:22.107Z,13.80
2019-02-02T08:04:22.091Z,12.20
2019-02-02T08:05:22.082Z,15.30
2019-02-02T08:06:22.078Z,11.90
2019-02-02T08:07:22.071Z,14.70
2019-02-02T08:08:22.059Z,13.00
2019-02-02T08:09:22.090Z,13.70
2019-02-02T08:10:22.046Z,12.00
2019-02-02T08:11:22.038Z,14.80
2019-02-02T08:12:22.030Z,12.90
2019-02-02T08:13:22.022Z,13.80
2019-02-02T08:14:22.015Z,13.10
2019-02-02T08:15:22.070Z,14.50
2019-02-02T08:16:22.001Z,15.60
2019-02-02T08:17:21.991Z,14.20
2019-02-02T08:18:21.984Z,13.90
2019-02-02T08:19:21.976Z,13.20
2019-02-02T08:20:21.968Z,14.40
2019-02-02T08:21:21.962Z,12.70
2019-02-02T08:22:21.954Z,14.70
2019-02-02T08:23:21.945Z,14.10
2019-02-02T08:24:21.938Z,14.70
2019-02-02T08:25:21.931Z,16.00
2019-02-02T08:26:22.073Z,14.00
2019-02-02T08:27:21.914Z,14.90
2019-02-02T08:28:21.968Z,16.10
2019-02-02T08:29:21.898Z,14.60
2019-02-02T08:30:21.892Z,13.80
2019-02-02T08:31:21.884Z,13.90
2019-02-02T08:32:21.876Z,14.70
2019-02-02T08:33:21.869Z,15.30
2019-02-02T08:34:21.865Z,13.00
2019-02-02T08:35:21.908Z,14.20
2019-02-02T08:36:21.848Z,17.00
2019-02-02T08:37:21.838Z,13.20
2019-02-02T08:38:21.835Z,12.90
2019-02-02T08:39:29.031Z,14.90
2019-02-02T08:40:21.818Z,13.40
2019-02-02T08:41:21.809Z,13.40
2019-02-02T08:42:21.800Z,13.80
2019-02-02T08:43:21.793Z,15.50
2019-02-02T08:44:21.784Z,13.80
2019-02-02T08:45:21.777Z,15.40
2019-02-02T08:46:21.770Z,15.90
2019-02-02T08:47:21.761Z,12.70
2019-02-02T08:48:21.754Z,13.70
2019-02-02T08:49:21.750Z,15.20
2019-02-02T08:50:21.737Z,12.80
2019-02-02T08:51:21.730Z,16.80
2019-02-02T08:52:21.722Z,14.30
2019-02-02T08:53:21.722Z,15.30
2019-02-02T08:54:21.709Z,15.20
2019-02-02T08:55:21.756Z,13.80
2019-02-02T08:56:21.736Z,14.00
2019-02-02T08:57:21.686Z,14.40
2019-02-02T08:58:21.677Z,17.20
2019-02-02T08:59:21.669Z,14.80
2019-02-02T09:00:21.662Z,12.70
2019-02-02T09:01:21.654Z,16.40
2019-02-02T09:02:21.646Z,15.30
2019-02-02T09:03:21.670Z,14.10
2019-02-02T09:04:21.670Z,16.50
2019-02-02T09:05:21.634Z,17.50
2019-02-02T09:06:21.618Z,12.80
2019-02-02T09:07:21.857Z,14.80
2019-02-02T09:08:21.662Z,15.70
2019-02-02T09:09:21.592Z,15.00
2019-02-02T09:10:21.585Z,15.40
2019-02-02T09:11:21.577Z,13.90
2019-02-02T09:12:21.570Z,15.10
2019-02-02T09:13:21.562Z,14.20
2019-02-02T09:14:21.554Z,15.00
2019-02-02T09:15:21.549Z,16.80
2019-02-02T09:16:21.540Z,15.20
2019-02-02T09:17:21.531Z,13.50
2019-02-02T09:18:21.523Z,16.10
2019-02-02T09:19:21.607Z,14.20
2019-02-02T09:20:21.508Z,14.60
2019-02-02T09:21:21.582Z,15.20
2019-02-02T09:22:21.492Z,16.30
2019-02-02T09:23:21.486Z,15.10
2019-02-02T09:24:21.476Z,14.60
2019-02-02T09:25:21.472Z,15.70
2019-02-02T09:26:21.464Z,15.70
2019-02-02T09:27:21.453Z,13.60
2019-02-02T09:28:21.453Z,14.40
2019-02-02T09:29:21.441Z,16.60
2019-02-02T09:30:21.433Z,14.50
2019-02-02T09:31:21.423Z,15.10
2019-02-02T09:32:21.415Z,14.90
2019-02-02T09:33:21.410Z,16.10
2019-02-02T09:34:21.404Z,16.90
2019-02-02T09:35:21.394Z,13.60
2019-02-02T09:36:21.386Z,14.70
2019-02-02T09:37:21.393Z,14.90
2019-02-02T09:38:21.372Z,14.90
2019-02-02T09:39:21.362Z,16.10
2019-02-02T09:40:21.355Z,16.70
2019-02-02T09:41:21.346Z,15.40
2019-02-02T09:42:21.339Z,15.50
2019-02-02T09:43:21.333Z,14.30
2019-02-02T09:44:21.323Z,14.90
2019-02-02T09:45:21.318Z,16.10
2019-02-02T09:46:21.310Z,15.80
2019-02-02T09:47:21.304Z,13.80
2019-02-02T09:48:21.595Z,17.20
2019-02-02T09:49:21.290Z,15.60
2019-02-02T09:50:21.278Z,15.30
2019-02-02T09:51:21.271Z,15.30
2019-02-02T09:52:21.263Z,15.00
2019-02-02T09:53:21.256Z,16.70
2019-02-02T09:54:26.704Z,15.20
2019-02-02T09:55:21.361Z,15.40
2019-02-02T09:56:21.232Z,15.10
2019-02-02T09:57:21.229Z,14.80
2019-02-02T09:58:21.219Z,16.30
2019-02-02T09:59:21.210Z,15.90
2019-02-02T10:00:21.204Z,15.10
2019-02-02T10:01:27.912Z,16.30
2019-02-02T10:02:21.189Z,16.10
2019-02-02T10:03:21.181Z,13.50
2019-02-02T10:04:21.174Z,16.30
2019-02-02T10:05:21.167Z,16.70
2019-02-02T10:06:21.159Z,16.00
2019-02-02T10:07:21.150Z,15.70
2019-02-02T10:08:21.143Z,16.80
2019-02-02T10:09:21.137Z,18.80
2019-02-02T10:10:21.129Z,13.70
2019-02-02T10:11:21.121Z,15.10
2019-02-02T10:12:21.268Z,16.10
2019-02-02T10:13:21.108Z,16.10
2019-02-02T10:14:21.100Z,18.70
2019-02-02T10:15:21.093Z,18.50
2019-02-02T10:16:21.085Z,18.10
2019-02-02T10:17:21.078Z,18.40
2019-02-02T10:18:21.072Z,15.50
2019-02-02T10:19:21.063Z,16.50
2019-02-02T10:20:21.057Z,18.10
2019-02-02T10:21:21.050Z,17.10
2019-02-02T10:22:21.041Z,15.10
2019-02-02T10:23:21.035Z,16.10
2019-02-02T10:24:21.033Z,17.40
2019-02-02T10:25:21.021Z,16.90
2019-02-02T10:26:21.014Z,18.80
2019-02-02T10:27:21.005Z,16.90
2019-02-02T10:28:21.010Z,15.50
2019-02-02T10:29:20.991Z,17.00
2019-02-02T10:30:22.744Z,16.80
2019-02-02T10:31:20.977Z,17.60
2019-02-02T10:32:20.971Z,15.60
2019-02-02T10:33:20.965Z,15.90
2019-02-02T10:34:20.959Z,16.80
2019-02-02T10:35:20.948Z,15.80
2019-02-02T10:36:20.943Z,16.90
2019-02-02T10:37:20.935Z,18.30
2019-02-02T10:38:20.930Z,18.10
2019-02-02T10:39:20.920Z,17.50
2019-02-02T10:40:20.912Z,18.00
2019-02-02T10:41:20.907Z,16.50
2019-02-02T10:42:20.900Z,17.80
2019-02-02T10:43:20.891Z,18.50
2019-02-02T10:44:20.904Z,16.10
2019-02-02T10:45:20.879Z,17.90
2019-02-02T10:46:20.870Z,17.30
2019-02-02T10:47:20.864Z,18.60
2019-02-02T10:48:20.860Z,17.20
2019-02-02T10:49:20.850Z,19.50
2019-02-02T10:50:20.844Z,19.50
2019-02-02T10:51:20.834Z,18.20
2019-02-02T10:52:20.830Z,15.20
2019-02-02T10:53:20.820Z,18.00
2019-02-02T10:54:20.814Z,17.40
2019-02-02T10:55:20.805Z,20.00
2019-02-02T10:56:20.799Z,17.70
2019-02-02T10:57:20.792Z,19.80
2019-02-02T10:58:20.785Z,19.50
2019-02-02T10:59:20.777Z,18.10
2019-02-02T11:00:20.772Z,18.60
2019-02-02T11:01:20.763Z,19.20
2019-02-02T11:02:20.757Z,20.30
2019-02-02T11:03:20.749Z,18.40
2019-02-02T11:04:20.945Z,17.80
2019-02-02T11:05:20.787Z,18.60
2019-02-02T11:06:20.729Z,18.70
2019-02-02T11:07:20.910Z,19.40
2019-02-02T11:08:20.759Z,20.30
2019-02-02T11:09:20.797Z,18.70
2019-02-02T11:10:20.715Z,18.90
2019-02-02T11:11:20.701Z,20.10
2019-02-02T11:12:20.824Z,20.40
2019-02-02T11:13:20.729Z,17.30
2019-02-02T11:14:20.789Z,19.00
2019-02-02T11:15:20.747Z,20.80
2019-02-02T11:16:20.655Z,18.70
2019-02-02T11:17:20.709Z,18.80
2019-02-02T11:18:20.733Z,20.50
2019-02-02T11:19:20.634Z,19.90
2019-02-02T11:20:20.671Z,18.20
2019-02-02T11:21:20.626Z,18.90
2019-02-02T11:22:20.654Z,18.40
2019-02-02T11:23:20.645Z,19.80
2019-02-02T11:24:20.605Z,20.70
2019-02-02T11:25:20.709Z,19.10
2019-02-02T11:26:20.582Z,17.10
2019-02-02T11:27:20.624Z,19.00
2019-02-02T11:28:20.615Z,20.20
2019-02-02T11:29:20.560Z,20.80
2019-02-02T11:30:20.555Z,16.60
2019-02-02T11:31:20.544Z,19.10
2019-02-02T11:32:20.539Z,19.10
2019-02-02T11:33:20.535Z,17.80
2019-02-02T11:34:20.523Z,20.40
2019-02-02T11:35:20.518Z,19.80
2019-02-02T11:36:20.509Z,19.40
2019-02-02T11:37:20.502Z,21.80
2019-02-02T11:38:20.499Z,19.20
2019-02-02T11:39:20.488Z,18.50
2019-02-02T11:40:20.480Z,17.50
2019-02-02T11:41:20.472Z,19.90
2019-02-02T11:42:20.466Z,21.30
2019-02-02T11:43:20.457Z,16.30
2019-02-02T11:44:20.450Z,20.80
2019-02-02T11:45:20.443Z,21.50
2019-02-02T11:46:20.437Z,16.70
2019-02-02T11:47:20.429Z,19.30
2019-02-02T11:48:20.422Z,19.10
2019-02-02T11:49:20.594Z,18.50
2019-02-02T11:50:20.409Z,21.10
2019-02-02T11:51:20.399Z,20.00
2019-02-02T11:52:23.256Z,20.20
2019-02-02T11:53:20.388Z,18.30
2019-02-02T11:54:20.378Z,18.00
2019-02-02T11:55:20.370Z,20.50
2019-02-02T11:56:20.361Z,21.00
2019-02-02T11:57:20.356Z,18.70
2019-02-02T11:58:20.350Z,19.10
2019-02-02T11:59:20.340Z,20.80
2019-02-02T12:00:20.380Z,19.70
2019-02-02T12:01:20.327Z,18.90
2019-02-02T12:02:20.319Z,20.60
2019-02-02T12:03:20.313Z,21.00
2019-02-02T12:04:20.305Z,20.10
2019-02-02T12:05:20.296Z,18.60
2019-02-02T12:06:20.289Z,18.40
2019-02-02T12:07:20.284Z,21.60
2019-02-02T12:08:20.276Z,21.30
2019-02-02T12:09:20.267Z,17.30
2019-02-02T12:10:20.263Z,20.00
2019-02-02T12:11:20.252Z,24.30
2019-02-02T12:12:20.246Z,18.60
2019-02-02T12:13:20.239Z,19.30
2019-02-02T12:14:20.234Z,19.20
2019-02-02T12:15:20.224Z,20.30
2019-02-02T12:16:20.217Z,20.00
2019-02-02T12:17:20.212Z,18.00
2019-02-02T12:18:20.203Z,18.80
2019-02-02T12:19:20.195Z,17.30
2019-02-02T12:20:20.188Z,20.00
2019-02-02T12:21:20.180Z,18.80
2019-02-02T12:22:20.173Z,20.50
2019-02-02T12:23:20.168Z,20.30
2019-02-02T12:24:20.159Z,19.20
2019-02-02T12:25:20.151Z,18.80
2019-02-02T12:26:20.145Z,19.70
2019-02-02T12:27:20.135Z,21.50
2019-02-02T12:28:20.131Z,16.90
2019-02-02T12:29:20.121Z,18.30
2019-02-02T12:30:20.114Z,20.40
2019-02-02T12:31:20.106Z,17.30
2019-02-02T12:32:26.896Z,20.20
2019-02-02T12:33:20.092Z,20.00
2019-02-02T12:34:20.085Z,21.10
2019-02-02T12:35:20.077Z,17.60
2019-02-02T12:36:20.190Z,18.90
2019-02-02T12:37:20.065Z,21.80
2019-02-02T12:38:20.056Z,17.70
2019-02-02T12:39:20.047Z,19.00
2019-02-02T12:40:20.040Z,21.00
2019-02-02T12:41:20.033Z,21.00
2019-02-02T12:42:20.025Z,18.30
2019-02-02T12:43:20.020Z,19.50
2019-02-02T12:44:20.010Z,20.30
2019-02-02T12:45:20.003Z,21.30
2019-02-02T12:46:19.996Z,22.00
2019-02-02T12:47:20.810Z,19.00
2019-02-02T12:48:19.981Z,19.80
2019-02-02T12:49:19.973Z,20.40
2019-02-02T12:50:19.966Z,20.10
2019-02-02T12:51:19.959Z,20.30
2019-02-02T12:52:19.950Z,21.90
2019-02-02T12:53:19.944Z,19.80
2019-02-02T12:54:19.936Z,18.20
2019-02-02T12:55:19.927Z,20.70
2019-02-02T12:56:19.926Z,21.80
2019-02-02T12:57:19.917Z,21.70
2019-02-02T12:58:19.919Z,18.70
2019-02-02T12:59:19.898Z,19.00
2019-02-02T13:00:19.892Z,20.80
2019-02-02T13:01:19.886Z,22.60
2019-02-02T13:02:19.878Z,20.20
2019-02-02T13:03:19.871Z,16.30
2019-02-02T13:04:19.862Z,22.90